Time;durP1;ratioP1;P1;durP2;ratioP2;P2;SDS_P1;SDS_P2;PMS_P1;PMS_P2;Temp;Humidity;BMP_temperature;BMP_pressure;BME280_temperature;BME280_humidity;BME280_pressure;Samples;Min_cycle;Max_cycle;Signal;HPM_P1;HPM_P2
2022/01/31 00:00:18;;;;;;;;;;;19.30;35.80;;;;;;5076124;28;19923;-65
2022/01/31 00:02:45;;;;;;;;;;;19.30;35.80;;;;;;5094441;28;19994;-65
2022/01/31 00:05:11;;;;;;;;;;;19.30;35.80;;;;;;5094315;28;19915;-64
2022/01/31 00:07:37;;;;;;;;;;;19.30;35.80;;;;;;5076200;28;20023;-64
2022/01/31 00:10:07;;;;;;;;;;;19.20;35.70;;;;;;5094319;28;20302;-64
2022/01/31 00:12:41;;;;;;;;;;;19.30;35.70;;;;;;5094352;28;20452;-64
2022/01/31 00:15:07;;;;;;;;;;;19.30;35.80;;;;;;5094345;28;19961;-64
2022/01/31 00:17:33;;;;;;;;;;;19.30;35.80;;;;;;5076023;28;19908;-64
2022/01/31 00:19:58;;;;;;;;;;;19.30;35.70;;;;;;5094194;28;19919;-64
2022/01/31 00:22:23;;;;;;;;;;;19.20;35.70;;;;;;5094115;28;20313;-64
2022/01/31 00:24:49;;;;;;;;;;;19.30;35.80;;;;;;5094286;28;20321;-64
2022/01/31 00:27:15;;;;;;;;;;;19.30;35.80;;;;;;5093487;28;19915;-64
2022/01/31 00:29:40;;;;;;;;;;;19.20;35.70;;;;;;5093943;28;19916;-64
2022/01/31 00:32:06;;;;;;;;;;;19.20;35.70;;;;;;5094232;28;19908;-64
2022/01/31 00:34:32;;;;;;;;;;;19.20;35.80;;;;;;5093921;28;19962;-64
2022/01/31 00:36:58;;;;;;;;;;;19.20;35.70;;;;;;5076034;28;20356;-64
2022/01/31 00:39:23;;;;;;;;;;;19.20;35.70;;;;;;5075788;28;19908;-64
2022/01/31 00:41:49;;;;;;;;;;;19.30;35.70;;;;;;5075755;28;19908;-64
2022/01/31 00:46:48;;;;;;;;;;;19.20;35.80;;;;;;5093830;28;19908;-64
2022/01/31 00:50:06;;;;;;;;;;;19.20;35.70;;;;;;5075682;28;19912;-64
2022/01/31 00:52:03;;;;;;;;;;;19.20;35.70;;;;;;5080107;28;20360;-64
2022/01/31 00:54:28;;;;;;;;;;;19.20;35.80;;;;;;5075495;28;20003;-64
2022/01/31 00:56:55;;;;;;;;;;;19.20;35.70;;;;;;5075338;28;20356;-64
2022/01/31 00:59:20;;;;;;;;;;;19.20;35.70;;;;;;5075092;28;19928;-64
2022/01/31 01:01:46;;;;;;;;;;;19.20;35.70;;;;;;5093484;28;19908;-65
2022/01/31 01:04:12;;;;;;;;;;;19.20;35.70;;;;;;5093482;28;19908;-64
2022/01/31 01:06:37;;;;;;;;;;;19.20;35.70;;;;;;5075464;28;20360;-64
2022/01/31 01:09:03;;;;;;;;;;;19.20;35.70;;;;;;5093482;28;19919;-64
2022/01/31 01:11:28;;;;;;;;;;;19.20;35.80;;;;;;5093543;28;20413;-64
2022/01/31 01:13:54;;;;;;;;;;;19.10;35.80;;;;;;5093452;28;19908;-63
2022/01/31 01:16:19;;;;;;;;;;;19.20;35.80;;;;;;5093785;28;19946;-64
2022/01/31 01:18:45;;;;;;;;;;;19.20;35.70;;;;;;5093685;28;20394;-64
2022/01/31 01:21:10;;;;;;;;;;;19.10;35.80;;;;;;5093510;28;19908;-63
2022/01/31 01:23:36;;;;;;;;;;;19.20;35.80;;;;;;5093402;28;19908;-64
2022/01/31 01:26:01;;;;;;;;;;;19.10;35.80;;;;;;5075249;28;19995;-63
2022/01/31 01:28:27;;;;;;;;;;;19.10;35.80;;;;;;5093347;28;19908;-63
2022/01/31 01:30:55;;;;;;;;;;;19.10;35.80;;;;;;5093282;28;20424;-63
2022/01/31 01:33:22;;;;;;;;;;;19.10;35.80;;;;;;5093201;28;20363;-63
2022/01/31 01:35:50;;;;;;;;;;;19.10;35.80;;;;;;5093222;28;19908;-64
2022/01/31 01:38:17;;;;;;;;;;;19.10;35.80;;;;;;5093668;28;19946;-64
2022/01/31 01:40:43;;;;;;;;;;;19.10;35.80;;;;;;5097547;28;19908;-63
2022/01/31 01:43:08;;;;;;;;;;;19.10;35.80;;;;;;5097174;28;19969;-63
2022/01/31 01:45:34;;;;;;;;;;;19.10;35.80;;;;;;5097200;28;19961;-63
2022/01/31 01:48:00;;;;;;;;;;;19.10;35.80;;;;;;5097153;28;19908;-63
2022/01/31 01:50:25;;;;;;;;;;;19.10;35.80;;;;;;5096991;28;19920;-64
2022/01/31 01:52:51;;;;;;;;;;;19.10;35.80;;;;;;5096969;28;19908;-64
2022/01/31 01:55:17;;;;;;;;;;;19.10;35.80;;;;;;5097073;28;19912;-64
2022/01/31 01:57:43;;;;;;;;;;;19.10;35.80;;;;;;5097566;28;20343;-64
2022/01/31 02:00:15;;;;;;;;;;;19.10;35.80;;;;;;5096782;28;19930;-64
2022/01/31 02:02:42;;;;;;;;;;;19.10;35.80;;;;;;5078751;28;19948;-63
2022/01/31 02:05:08;;;;;;;;;;;19.10;35.80;;;;;;5096915;28;19915;-63
2022/01/31 02:07:34;;;;;;;;;;;19.10;35.80;;;;;;5096829;28;20355;-63
2022/01/31 02:10:04;;;;;;;;;;;19.10;35.70;;;;;;5096630;28;19923;-64
2022/01/31 02:12:39;;;;;;;;;;;19.10;35.80;;;;;;5096976;28;19908;-64
2022/01/31 02:15:05;;;;;;;;;;;19.00;35.80;;;;;;5096644;28;20260;-64
2022/01/31 02:17:31;;;;;;;;;;;19.10;35.80;;;;;;5078415;28;19908;-63
2022/01/31 02:19:56;;;;;;;;;;;19.10;35.80;;;;;;5096549;28;19909;-63
2022/01/31 02:22:22;;;;;;;;;;;19.00;35.80;;;;;;5096639;28;19908;-63
2022/01/31 02:24:47;;;;;;;;;;;19.10;35.80;;;;;;5096753;28;19908;-63
2022/01/31 02:27:13;;;;;;;;;;;19.10;35.80;;;;;;5096710;28;19908;-63
2022/01/31 02:29:38;;;;;;;;;;;19.00;35.80;;;;;;5096344;28;19927;-63
2022/01/31 02:32:04;;;;;;;;;;;19.00;35.80;;;;;;5096294;28;20362;-65
2022/01/31 02:34:29;;;;;;;;;;;19.00;35.80;;;;;;5096313;28;19996;-63
2022/01/31 02:36:55;;;;;;;;;;;19.00;35.80;;;;;;5096264;28;20371;-63
2022/01/31 02:39:20;;;;;;;;;;;19.00;35.80;;;;;;5077940;28;19977;-64
2022/01/31 02:41:46;;;;;;;;;;;19.00;35.90;;;;;;5096152;28;20042;-63
2022/01/31 02:44:16;;;;;;;;;;;19.00;35.90;;;;;;5096163;28;19909;-64
2022/01/31 02:46:48;;;;;;;;;;;19.00;35.90;;;;;;5096027;28;19912;-64
2022/01/31 02:49:15;;;;;;;;;;;19.00;35.90;;;;;;5096086;28;19912;-64
2022/01/31 02:51:46;;;;;;;;;;;19.00;35.90;;;;;;5095327;28;19977;-63
2022/01/31 02:54:11;;;;;;;;;;;19.00;35.90;;;;;;5095869;28;19920;-64
2022/01/31 02:56:40;;;;;;;;;;;19.00;35.90;;;;;;5095843;28;20430;-64
2022/01/31 02:59:06;;;;;;;;;;;18.90;36.00;;;;;;5095551;28;19949;-64
2022/01/31 03:01:33;;;;;;;;;;;18.90;36.00;;;;;;5095672;28;19920;-64
2022/01/31 03:03:59;;;;;;;;;;;18.90;36.00;;;;;;5095704;28;19922;-63
2022/01/31 03:06:24;;;;;;;;;;;19.00;36.00;;;;;;5095881;28;20053;-63
2022/01/31 03:08:50;;;;;;;;;;;18.90;36.00;;;;;;5095807;28;19953;-63
2022/01/31 03:11:15;;;;;;;;;;;18.90;36.00;;;;;;5095820;28;19908;-63
2022/01/31 03:13:40;;;;;;;;;;;18.90;36.10;;;;;;5095452;28;19908;-63
2022/01/31 03:16:06;;;;;;;;;;;18.90;36.10;;;;;;5095413;28;19908;-63
2022/01/31 03:18:31;;;;;;;;;;;18.90;36.10;;;;;;5095344;28;20034;-64
2022/01/31 03:20:57;;;;;;;;;;;18.90;36.10;;;;;;5077261;28;20375;-63
2022/01/31 03:23:22;;;;;;;;;;;18.90;36.10;;;;;;5095226;28;19915;-63
2022/01/31 03:25:48;;;;;;;;;;;18.90;36.10;;;;;;5095226;28;19912;-63
2022/01/31 03:28:13;;;;;;;;;;;18.90;36.10;;;;;;5095335;28;20065;-63
2022/01/31 03:30:39;;;;;;;;;;;18.90;36.10;;;;;;5094968;28;19916;-63
2022/01/31 03:33:04;;;;;;;;;;;18.90;36.20;;;;;;5095301;28;19948;-64
2022/01/31 03:35:30;;;;;;;;;;;18.90;36.20;;;;;;5094982;28;19908;-63
2022/01/31 03:37:55;;;;;;;;;;;18.90;36.20;;;;;;5094794;28;19931;-63
2022/01/31 03:40:21;;;;;;;;;;;18.80;36.20;;;;;;5094763;28;20341;-63
2022/01/31 03:42:46;;;;;;;;;;;18.90;36.20;;;;;;5094963;28;20362;-63
2022/01/31 03:45:12;;;;;;;;;;;18.90;36.20;;;;;;5094899;28;20003;-63
2022/01/31 03:47:44;;;;;;;;;;;18.90;36.20;;;;;;5076695;28;20294;-63
2022/01/31 03:50:10;;;;;;;;;;;18.80;36.30;;;;;;5094960;28;20002;-63
2022/01/31 03:52:36;;;;;;;;;;;18.80;36.20;;;;;;5094761;28;19909;-63
2022/01/31 03:55:01;;;;;;;;;;;18.80;36.30;;;;;;5094683;28;19909;-64
2022/01/31 03:57:28;;;;;;;;;;;18.80;36.30;;;;;;5094685;28;19908;-63
2022/01/31 03:59:54;;;;;;;;;;;18.80;36.30;;;;;;5094383;28;19962;-63
2022/01/31 04:02:19;;;;;;;;;;;18.80;36.30;;;;;;5093669;28;19915;-64
2022/01/31 04:04:45;;;;;;;;;;;18.80;36.30;;;;;;5094505;28;20000;-63
2022/01/31 04:07:11;;;;;;;;;;;18.80;36.30;;;;;;5094462;28;19915;-63
2022/01/31 04:09:36;;;;;;;;;;;18.90;36.30;;;;;;5094455;28;19916;-65
2022/01/31 04:12:02;;;;;;;;;;;18.80;36.30;;;;;;5076436;28;19908;-64
2022/01/31 04:14:27;;;;;;;;;;;18.80;36.30;;;;;;5094306;28;19908;-64
2022/01/31 04:16:54;;;;;;;;;;;18.80;36.30;;;;;;5094322;28;19962;-64
2022/01/31 04:19:20;;;;;;;;;;;18.80;36.30;;;;;;5094254;28;19916;-64
2022/01/31 04:21:46;;;;;;;;;;;18.80;36.40;;;;;;5094233;28;20348;-65
2022/01/31 04:24:18;;;;;;;;;;;18.80;36.30;;;;;;5094132;28;19961;-64
2022/01/31 04:26:55;;;;;;;;;;;18.80;36.40;;;;;;5094229;28;19954;-64
2022/01/31 04:29:20;;;;;;;;;;;18.80;36.40;;;;;;5093996;28;19912;-64
2022/01/31 04:31:49;;;;;;;;;;;18.80;36.40;;;;;;5075870;28;19961;-64
2022/01/31 04:34:15;;;;;;;;;;;18.80;36.40;;;;;;5094199;28;19961;-64
2022/01/31 04:36:40;;;;;;;;;;;18.80;36.40;;;;;;5093971;28;19912;-64
2022/01/31 04:39:06;;;;;;;;;;;18.80;36.40;;;;;;5075863;28;19908;-64
2022/01/31 04:41:32;;;;;;;;;;;18.80;36.40;;;;;;5093906;28;19908;-64
2022/01/31 04:44:03;;;;;;;;;;;18.80;36.40;;;;;;5075760;28;19908;-64
2022/01/31 04:46:30;;;;;;;;;;;18.80;36.40;;;;;;5093819;28;19919;-64
2022/01/31 04:48:55;;;;;;;;;;;18.80;36.40;;;;;;5093925;28;19915;-64
2022/01/31 04:51:21;;;;;;;;;;;18.80;36.40;;;;;;5093759;28;19916;-64
2022/01/31 04:53:46;;;;;;;;;;;18.80;36.40;;;;;;5093764;28;19908;-64
2022/01/31 04:56:12;;;;;;;;;;;18.80;36.40;;;;;;5093720;28;19908;-64
2022/01/31 04:58:37;;;;;;;;;;;18.80;36.40;;;;;;5093866;28;19915;-64
2022/01/31 05:01:03;;;;;;;;;;;18.80;36.40;;;;;;5093482;28;19942;-65
2022/01/31 05:03:29;;;;;;;;;;;18.80;36.50;;;;;;5093613;28;19972;-64
2022/01/31 05:05:55;;;;;;;;;;;18.80;36.50;;;;;;5093814;28;19908;-64
2022/01/31 05:08:25;;;;;;;;;;;18.80;36.50;;;;;;5093571;28;19919;-65
2022/01/31 05:10:51;;;;;;;;;;;18.80;36.50;;;;;;5093520;28;19916;-64
2022/01/31 05:13:17;;;;;;;;;;;18.80;36.50;;;;;;5094848;28;19908;-64
2022/01/31 05:15:42;;;;;;;;;;;18.80;36.50;;;;;;5100392;28;19912;-64
2022/01/31 05:18:08;;;;;;;;;;;18.80;36.50;;;;;;5100189;28;19954;-64
2022/01/31 05:20:34;;;;;;;;;;;18.80;36.50;;;;;;5100114;28;19908;-64
2022/01/31 05:22:59;;;;;;;;;;;18.80;36.50;;;;;;5082003;28;20364;-64
2022/01/31 05:25:25;;;;;;;;;;;18.90;36.40;;;;;;5100141;28;19908;-65
2022/01/31 05:27:50;;;;;;;;;;;18.90;36.40;;;;;;5081987;28;19943;-64
2022/01/31 05:30:20;;;;;;;;;;;18.90;36.40;;;;;;5081710;28;19927;-64
2022/01/31 05:32:46;;;;;;;;;;;19.00;36.40;;;;;;5100148;28;19915;-64
2022/01/31 05:35:11;;;;;;;;;;;19.00;36.40;;;;;;5099909;28;20463;-64
2022/01/31 05:37:37;;;;;;;;;;;19.00;36.40;;;;;;5099928;28;20267;-64
2022/01/31 05:40:03;;;;;;;;;;;19.00;36.30;;;;;;5100080;28;19958;-64
2022/01/31 05:42:28;;;;;;;;;;;19.10;36.30;;;;;;5099858;28;19908;-64
2022/01/31 05:44:53;;;;;;;;;;;19.00;36.30;;;;;;5099904;28;19915;-64
2022/01/31 05:47:19;;;;;;;;;;;19.10;36.30;;;;;;5099960;28;19908;-64
2022/01/31 05:49:45;;;;;;;;;;;19.10;36.30;;;;;;5099806;28;20015;-64
2022/01/31 05:52:11;;;;;;;;;;;19.10;36.30;;;;;;5099886;28;19908;-64
2022/01/31 05:54:37;;;;;;;;;;;19.10;36.30;;;;;;5081813;28;19952;-64
2022/01/31 05:57:03;;;;;;;;;;;19.20;36.30;;;;;;5099810;28;19909;-64
2022/01/31 05:59:29;;;;;;;;;;;19.10;36.30;;;;;;5099655;28;19924;-64
2022/01/31 06:01:56;;;;;;;;;;;19.20;36.30;;;;;;5099914;28;19912;-64
2022/01/31 06:04:22;;;;;;;;;;;19.20;36.30;;;;;;5081532;28;19908;-64
2022/01/31 06:06:47;;;;;;;;;;;19.20;36.30;;;;;;5099638;28;19977;-64
2022/01/31 06:09:13;;;;;;;;;;;19.20;36.40;;;;;;5099683;28;19954;-65
2022/01/31 06:11:38;;;;;;;;;;;19.20;36.40;;;;;;5099542;28;20003;-64
2022/01/31 06:14:07;;;;;;;;;;;19.20;36.40;;;;;;5099634;28;19915;-64
2022/01/31 06:16:33;;;;;;;;;;;19.20;36.30;;;;;;5099565;28;19915;-64
2022/01/31 06:18:58;;;;;;;;;;;19.20;36.40;;;;;;5099646;28;19946;-64
2022/01/31 06:21:24;;;;;;;;;;;19.20;36.40;;;;;;5099598;28;19931;-64
2022/01/31 06:23:49;;;;;;;;;;;19.30;36.40;;;;;;5099448;28;19915;-64
2022/01/31 06:26:15;;;;;;;;;;;19.20;36.40;;;;;;5077779;28;19908;-64
2022/01/31 06:28:40;;;;;;;;;;;19.30;36.40;;;;;;5096306;28;19908;-64
2022/01/31 06:31:06;;;;;;;;;;;19.30;36.40;;;;;;5096442;28;19923;-64
2022/01/31 06:33:32;;;;;;;;;;;19.30;36.40;;;;;;5096271;28;20402;-64
2022/01/31 06:35:58;;;;;;;;;;;19.30;36.40;;;;;;5078041;28;19909;-64
2022/01/31 06:38:24;;;;;;;;;;;19.30;36.40;;;;;;5077771;28;19915;-65
2022/01/31 06:40:49;;;;;;;;;;;19.30;36.40;;;;;;5095896;28;19961;-64
2022/01/31 06:43:15;;;;;;;;;;;19.30;36.40;;;;;;5095931;28;19912;-64
2022/01/31 06:45:40;;;;;;;;;;;19.30;36.40;;;;;;5095839;28;20359;-64
2022/01/31 06:48:06;;;;;;;;;;;19.40;36.40;;;;;;5096026;28;19954;-64
2022/01/31 06:50:32;;;;;;;;;;;19.30;36.40;;;;;;5077668;28;19916;-65
2022/01/31 06:52:57;;;;;;;;;;;19.40;36.50;;;;;;5077729;28;20333;-64
2022/01/31 06:55:23;;;;;;;;;;;19.40;36.50;;;;;;5095798;28;19908;-64
2022/01/31 06:57:50;;;;;;;;;;;19.40;36.50;;;;;;5095798;28;19912;-64
2022/01/31 07:00:18;;;;;;;;;;;19.40;36.50;;;;;;5095616;28;19927;-64
2022/01/31 07:02:44;;;;;;;;;;;19.40;36.50;;;;;;5095617;28;19908;-64
2022/01/31 07:05:09;;;;;;;;;;;19.40;36.50;;;;;;5095458;28;20356;-64
2022/01/31 07:07:34;;;;;;;;;;;19.40;36.50;;;;;;5095444;28;19912;-63
2022/01/31 07:10:01;;;;;;;;;;;19.30;36.50;;;;;;5078116;28;19916;-63
2022/01/31 07:12:33;;;;;;;;;;;19.40;36.60;;;;;;5083713;28;19908;-64
2022/01/31 07:14:59;;;;;;;;;;;19.40;36.60;;;;;;5094771;28;19908;-63
2022/01/31 07:17:24;;;;;;;;;;;19.40;37.00;;;;;;5087296;28;19987;-65
2022/01/31 07:19:50;;;;;;;;;;;19.40;36.90;;;;;;5080514;28;20344;-67
2022/01/31 07:22:17;;;;;;;;;;;19.40;36.90;;;;;;5093703;28;19916;-64
2022/01/31 07:24:46;;;;;;;;;;;19.40;37.00;;;;;;5089836;28;19912;-63
2022/01/31 07:27:12;;;;;;;;;;;19.40;37.20;;;;;;5075609;28;20336;-64
2022/01/31 07:29:38;;;;;;;;;;;19.10;36.90;;;;;;5087385;28;20331;-63
2022/01/31 07:32:04;;;;;;;;;;;19.00;37.60;;;;;;5094068;28;19915;-64
2022/01/31 07:34:29;;;;;;;;;;;19.20;37.70;;;;;;5093770;28;20010;-65
2022/01/31 07:36:55;;;;;;;;;;;19.30;37.20;;;;;;5075767;28;20279;-64
2022/01/31 07:39:21;;;;;;;;;;;19.40;37.50;;;;;;5089248;28;19923;-64
2022/01/31 07:41:47;;;;;;;;;;;19.40;37.10;;;;;;5064142;28;20344;-65
2022/01/31 07:44:12;;;;;;;;;;;19.50;36.90;;;;;;5068522;28;19915;-64
2022/01/31 07:46:38;;;;;;;;;;;19.50;37.60;;;;;;5092445;28;20463;-64
2022/01/31 07:49:04;;;;;;;;;;;19.50;37.30;;;;;;5093446;28;20378;-63
2022/01/31 07:51:30;;;;;;;;;;;19.50;37.50;;;;;;5081039;28;19924;-64
2022/01/31 07:53:55;;;;;;;;;;;19.50;37.50;;;;;;5087030;28;19912;-64
2022/01/31 07:56:21;;;;;;;;;;;19.50;37.30;;;;;;5085761;28;19916;-61
2022/01/31 07:58:46;;;;;;;;;;;19.50;37.40;;;;;;5113932;28;19963;-63
2022/01/31 08:01:12;;;;;;;;;;;19.50;37.40;;;;;;5085725;28;19925;-63
2022/01/31 08:03:37;;;;;;;;;;;19.50;37.50;;;;;;5072882;28;19909;-64
2022/01/31 08:06:03;;;;;;;;;;;19.50;37.30;;;;;;5090338;28;20348;-64
2022/01/31 08:08:30;;;;;;;;;;;19.50;37.60;;;;;;5092959;28;19912;-65
2022/01/31 08:10:56;;;;;;;;;;;19.50;37.40;;;;;;5087530;28;19924;-64
2022/01/31 08:13:24;;;;;;;;;;;19.50;37.60;;;;;;5077950;28;19923;-65
2022/01/31 08:16:02;;;;;;;;;;;19.50;37.50;;;;;;5091990;28;19916;-66
2022/01/31 08:18:28;;;;;;;;;;;19.50;37.50;;;;;;5079767;28;19967;-67
2022/01/31 08:20:53;;;;;;;;;;;19.50;37.30;;;;;;5087863;28;19951;-66
2022/01/31 08:23:19;;;;;;;;;;;19.60;37.60;;;;;;5086065;28;20320;-68
2022/01/31 08:25:48;;;;;;;;;;;19.60;37.90;;;;;;5091403;28;20252;-66
2022/01/31 08:28:14;;;;;;;;;;;19.50;38.00;;;;;;5087966;28;19919;-66
2022/01/31 08:33:32;;;;;;;;;;;19.50;37.70;;;;;;5091999;28;20308;-65
2022/01/31 08:35:57;;;;;;;;;;;19.60;38.00;;;;;;5091952;28;19912;-66
2022/01/31 08:38:23;;;;;;;;;;;19.60;37.80;;;;;;5085997;28;20386;-65
2022/01/31 08:40:48;;;;;;;;;;;19.60;37.80;;;;;;5092632;28;19916;-65
2022/01/31 08:43:16;;;;;;;;;;;19.60;38.00;;;;;;5088117;28;19948;-66
2022/01/31 08:45:41;;;;;;;;;;;19.60;38.00;;;;;;5085557;28;19954;-66
2022/01/31 08:48:07;;;;;;;;;;;19.60;38.00;;;;;;5082492;28;19916;-66
2022/01/31 08:50:32;;;;;;;;;;;19.60;38.00;;;;;;5083146;28;19927;-64
2022/01/31 08:52:58;;;;;;;;;;;19.60;38.10;;;;;;5090876;28;20364;-63
2022/01/31 08:55:24;;;;;;;;;;;19.60;38.00;;;;;;5080917;28;20395;-64
2022/01/31 08:57:53;;;;;;;;;;;19.70;38.10;;;;;;5072742;28;20003;-65
2022/01/31 09:00:19;;;;;;;;;;;19.60;37.90;;;;;;5083138;28;20376;-64
2022/01/31 09:02:59;;;;;;;;;;;19.70;38.00;;;;;;5077254;28;19929;-62
2022/01/31 09:05:24;;;;;;;;;;;19.70;38.00;;;;;;5073281;28;19920;-64
2022/01/31 09:07:50;;;;;;;;;;;19.60;38.10;;;;;;5085510;28;19966;-64
2022/01/31 09:10:15;;;;;;;;;;;19.70;38.00;;;;;;5092056;28;19920;-65
2022/01/31 09:12:42;;;;;;;;;;;19.70;38.40;;;;;;5077924;28;19919;-64
2022/01/31 09:15:11;;;;;;;;;;;19.70;38.40;;;;;;5089179;28;20359;-64
2022/01/31 09:17:37;;;;;;;;;;;19.70;38.30;;;;;;5099646;28;19908;-64
2022/01/31 09:20:03;;;;;;;;;;;19.70;38.40;;;;;;5080276;28;20279;-63
2022/01/31 09:22:28;;;;;;;;;;;19.60;38.50;;;;;;5090700;28;19916;-64
2022/01/31 09:24:54;;;;;;;;;;;19.70;38.70;;;;;;5091741;28;19970;-64
2022/01/31 09:27:19;;;;;;;;;;;19.60;38.60;;;;;;5079953;28;19916;-65
2022/01/31 09:29:45;;;;;;;;;;;19.70;38.50;;;;;;5077760;28;19924;-64
2022/01/31 09:32:12;;;;;;;;;;;19.70;38.50;;;;;;5091067;28;19958;-65
2022/01/31 09:34:37;;;;;;;;;;;19.70;38.50;;;;;;5091779;28;19969;-64
2022/01/31 09:37:03;;;;;;;;;;;19.70;38.50;;;;;;5072634;28;19916;-64
2022/01/31 09:39:30;;;;;;;;;;;19.70;38.70;;;;;;5072742;28;19916;-66
2022/01/31 09:41:57;;;;;;;;;;;19.70;38.40;;;;;;5079707;28;19912;-67
2022/01/31 09:44:39;;;;;;;;;;;19.60;38.50;;;;;;5089934;28;19912;-68
2022/01/31 09:47:20;;;;;;;;;;;19.60;38.60;;;;;;5073334;28;20454;-67
2022/01/31 09:49:46;;;;;;;;;;;19.60;38.60;;;;;;5085307;28;19928;-67
2022/01/31 09:52:12;;;;;;;;;;;19.70;38.70;;;;;;5090224;28;19916;-68
2022/01/31 09:54:37;;;;;;;;;;;19.70;38.60;;;;;;5081307;28;20003;-66
2022/01/31 09:57:03;;;;;;;;;;;19.70;38.60;;;;;;5075705;28;19936;-67
2022/01/31 09:59:29;;;;;;;;;;;19.70;38.40;;;;;;5074010;28;19955;-65
2022/01/31 10:01:55;;;;;;;;;;;19.70;38.70;;;;;;5058849;28;20345;-66
2022/01/31 10:04:22;;;;;;;;;;;19.70;38.50;;;;;;5080102;28;19916;-66
2022/01/31 10:06:49;;;;;;;;;;;19.70;38.60;;;;;;5086764;28;20017;-66
2022/01/31 10:09:15;;;;;;;;;;;19.70;38.60;;;;;;5064840;28;19923;-67
2022/01/31 10:11:53;;;;;;;;;;;19.70;38.40;;;;;;5085727;28;19916;-66
2022/01/31 10:17:05;;;;;;;;;;;19.70;39.00;;;;;;5076524;28;19935;-66
2022/01/31 10:19:37;;;;;;;;;;;19.80;39.00;;;;;;5079665;28;19912;-66
2022/01/31 10:22:04;;;;;;;;;;;19.80;39.00;;;;;;5095557;28;20371;-68
2022/01/31 10:24:31;;;;;;;;;;;19.70;39.10;;;;;;5112666;28;19953;-67
2022/01/31 10:26:57;;;;;;;;;;;19.80;38.70;;;;;;5094598;28;19908;-66
2022/01/31 10:29:23;;;;;;;;;;;19.80;38.80;;;;;;5074224;28;20462;-68
2022/01/31 10:31:53;;;;;;;;;;;19.80;39.00;;;;;;5075308;28;19916;-67
2022/01/31 10:34:21;;;;;;;;;;;19.80;38.90;;;;;;5073671;28;20252;-67
2022/01/31 10:36:46;;;;;;;;;;;19.80;38.80;;;;;;5082232;28;19913;-66
2022/01/31 10:39:15;;;;;;;;;;;19.80;39.00;;;;;;5094360;28;20014;-66
2022/01/31 10:53:00;;;;;;;;;;;19.80;38.90;;;;;;5093841;28;19931;-66
2022/01/31 10:55:25;;;;;;;;;;;19.80;38.90;;;;;;5086939;28;20347;-66
2022/01/31 10:58:04;;;;;;;;;;;19.80;38.90;;;;;;5093003;28;19912;-64
2022/01/31 11:00:33;;;;;;;;;;;19.80;38.90;;;;;;5084812;28;19984;-66
2022/01/31 11:03:21;;;;;;;;;;;19.80;38.90;;;;;;5070947;28;21295;-64
2022/01/31 11:05:49;;;;;;;;;;;19.80;39.00;;;;;;5086063;28;19924;-64
2022/01/31 11:08:16;;;;;;;;;;;19.90;39.10;;;;;;5093474;28;19965;-62
2022/01/31 11:10:41;;;;;;;;;;;19.80;39.10;;;;;;5093591;28;20011;-65
2022/01/31 11:13:08;;;;;;;;;;;19.80;39.00;;;;;;5093163;28;19947;-66
2022/01/31 11:15:34;;;;;;;;;;;19.80;38.90;;;;;;5088333;28;19916;-64
2022/01/31 11:18:01;;;;;;;;;;;19.80;39.00;;;;;;5093689;28;19912;-63
2022/01/31 11:20:26;;;;;;;;;;;19.90;38.90;;;;;;5093688;28;19912;-64
2022/01/31 11:22:57;;;;;;;;;;;19.90;39.00;;;;;;5093671;28;19920;-65
2022/01/31 11:25:26;;;;;;;;;;;19.90;39.10;;;;;;5085604;28;19916;-66
2022/01/31 11:27:59;;;;;;;;;;;19.90;39.10;;;;;;5092896;28;19912;-65
2022/01/31 11:30:25;;;;;;;;;;;19.90;39.00;;;;;;5091397;28;19920;-62
2022/01/31 11:32:51;;;;;;;;;;;20.00;39.10;;;;;;5092895;28;19935;-65
2022/01/31 11:35:17;;;;;;;;;;;20.00;38.90;;;;;;5083084;28;19916;-64
2022/01/31 11:37:42;;;;;;;;;;;20.00;39.00;;;;;;5083938;28;19972;-64
2022/01/31 11:40:09;;;;;;;;;;;20.00;39.00;;;;;;5092201;28;19912;-64
2022/01/31 11:42:35;;;;;;;;;;;20.00;39.00;;;;;;5075297;28;20011;-65
2022/01/31 11:45:07;;;;;;;;;;;20.00;39.00;;;;;;5088251;28;19999;-64
2022/01/31 11:47:35;;;;;;;;;;;20.00;39.00;;;;;;5092261;28;19935;-66
2022/01/31 11:50:03;;;;;;;;;;;20.00;39.10;;;;;;5075748;28;19921;-67
2022/01/31 11:52:33;;;;;;;;;;;20.00;39.10;;;;;;5093395;28;19916;-66
2022/01/31 11:55:04;;;;;;;;;;;20.00;39.10;;;;;;5060124;28;20290;-66
2022/01/31 11:57:31;;;;;;;;;;;20.00;39.00;;;;;;5089579;28;19920;-66
2022/01/31 11:59:56;;;;;;;;;;;20.00;39.10;;;;;;5079839;28;20402;-66
2022/01/31 12:02:23;;;;;;;;;;;20.00;39.00;;;;;;5088841;28;19912;-65
2022/01/31 12:04:50;;;;;;;;;;;20.00;39.10;;;;;;5087540;28;19916;-63
2022/01/31 12:07:48;;;;;;;;;;;20.00;39.00;;;;;;5095905;28;19957;-63
2022/01/31 12:10:26;;;;;;;;;;;20.00;39.00;;;;;;5046869;28;19924;-64
2022/01/31 12:13:03;;;;;;;;;;;20.00;39.10;;;;;;5072334;28;19927;-62
2022/01/31 12:18:35;;;;;;;;;;;20.00;39.00;;;;;;5091885;28;19912;-63
2022/01/31 12:23:49;;;;;;;;;;;20.00;39.20;;;;;;5071123;28;19916;-63
2022/01/31 12:26:28;;;;;;;;;;;20.00;39.20;;;;;;5079200;28;19912;-62
2022/01/31 12:28:55;;;;;;;;;;;20.00;39.30;;;;;;5091860;28;19958;-63
2022/01/31 12:31:23;;;;;;;;;;;20.00;39.20;;;;;;5084702;28;19921;-61
2022/01/31 12:33:49;;;;;;;;;;;20.00;39.20;;;;;;5090619;28;19908;-60
2022/01/31 12:36:25;;;;;;;;;;;20.00;39.10;;;;;;5085334;28;20444;-62
2022/01/31 12:38:51;;;;;;;;;;;20.10;39.20;;;;;;5079284;28;19912;-63
2022/01/31 12:41:30;;;;;;;;;;;20.00;39.30;;;;;;5088684;28;20395;-63
2022/01/31 12:44:15;;;;;;;;;;;20.00;39.40;;;;;;5059472;28;19912;-63
2022/01/31 12:46:48;;;;;;;;;;;20.00;39.40;;;;;;5080739;28;19936;-64
2022/01/31 12:49:13;;;;;;;;;;;20.00;39.40;;;;;;5053746;28;20374;-64
2022/01/31 12:52:05;;;;;;;;;;;20.00;39.50;;;;;;5068287;28;19920;-64
2022/01/31 12:54:32;;;;;;;;;;;20.00;39.50;;;;;;5084177;28;19923;-65
2022/01/31 12:57:02;;;;;;;;;;;20.00;39.40;;;;;;5083809;28;19920;-63
2022/01/31 12:59:27;;;;;;;;;;;19.90;39.60;;;;;;5072185;28;19928;-64
2022/01/31 13:01:53;;;;;;;;;;;20.00;39.50;;;;;;5093637;28;19942;-64
2022/01/31 13:04:20;;;;;;;;;;;20.00;39.40;;;;;;5111492;28;19939;-64
2022/01/31 13:06:46;;;;;;;;;;;20.00;39.40;;;;;;5099511;28;20425;-64
2022/01/31 13:09:12;;;;;;;;;;;20.00;39.50;;;;;;5091710;28;19989;-65
2022/01/31 13:11:41;;;;;;;;;;;20.00;39.50;;;;;;5092102;28;20437;-64
2022/01/31 13:14:27;;;;;;;;;;;20.00;39.70;;;;;;5087920;28;19912;-65
2022/01/31 13:17:08;;;;;;;;;;;20.00;39.50;;;;;;5098837;28;19912;-64
2022/01/31 13:19:38;;;;;;;;;;;20.00;39.50;;;;;;5094701;28;19918;-64
2022/01/31 13:22:06;;;;;;;;;;;20.00;39.50;;;;;;5098047;28;20003;-64
2022/01/31 13:24:42;;;;;;;;;;;20.00;39.50;;;;;;5092423;28;19912;-63
2022/01/31 13:27:09;;;;;;;;;;;20.00;39.60;;;;;;5073937;28;19908;-64
2022/01/31 13:29:36;;;;;;;;;;;20.00;39.40;;;;;;5088470;28;19946;-63
2022/01/31 13:32:22;;;;;;;;;;;20.00;39.50;;;;;;5056273;28;19919;-63
2022/01/31 13:34:50;;;;;;;;;;;20.00;39.40;;;;;;5079262;28;19918;-63
2022/01/31 13:37:29;;;;;;;;;;;20.00;39.50;;;;;;5095707;28;19912;-64
2022/01/31 13:39:55;;;;;;;;;;;20.00;39.50;;;;;;5076522;28;19912;-64
2022/01/31 13:42:26;;;;;;;;;;;20.10;39.50;;;;;;5091973;28;19916;-66
2022/01/31 13:44:54;;;;;;;;;;;20.00;39.50;;;;;;5078474;28;20269;-65
2022/01/31 13:50:19;;;;;;;;;;;20.00;39.50;;;;;;5089325;28;19924;-67
2022/01/31 13:52:51;;;;;;;;;;;20.00;39.50;;;;;;5088166;28;19919;-65
2022/01/31 13:55:17;;;;;;;;;;;20.00;39.70;;;;;;5080755;28;20287;-63
2022/01/31 13:57:43;;;;;;;;;;;20.00;39.50;;;;;;5078869;28;19918;-65
2022/01/31 14:00:08;;;;;;;;;;;20.00;39.60;;;;;;5076187;28;20299;-65
2022/01/31 14:02:35;;;;;;;;;;;20.00;39.60;;;;;;5082671;28;19923;-63
2022/01/31 14:05:02;;;;;;;;;;;20.00;39.50;;;;;;5082531;28;19916;-62
2022/01/31 14:07:31;;;;;;;;;;;20.00;39.80;;;;;;5094660;28;19912;-63
2022/01/31 14:09:57;;;;;;;;;;;20.00;39.50;;;;;;5094733;28;19956;-64
2022/01/31 14:12:26;;;;;;;;;;;20.00;39.60;;;;;;5095352;28;20340;-63
2022/01/31 14:14:51;;;;;;;;;;;20.00;39.60;;;;;;5089067;28;19912;-64
2022/01/31 14:17:20;;;;;;;;;;;20.00;39.50;;;;;;5094766;28;19916;-65
2022/01/31 14:19:45;;;;;;;;;;;20.00;39.50;;;;;;5064319;28;19919;-65
2022/01/31 14:22:11;;;;;;;;;;;20.00;39.60;;;;;;5072022;28;19912;-65
2022/01/31 14:24:36;;;;;;;;;;;20.00;39.50;;;;;;5084225;28;19919;-66
2022/01/31 14:27:03;;;;;;;;;;;20.00;39.70;;;;;;5076163;28;19920;-63
2022/01/31 14:29:29;;;;;;;;;;;20.00;39.60;;;;;;5075595;28;20417;-61
2022/01/31 14:31:55;;;;;;;;;;;20.00;39.60;;;;;;5078657;28;19920;-63
2022/01/31 14:34:21;;;;;;;;;;;20.00;39.60;;;;;;5080114;28;20363;-63
2022/01/31 14:36:50;;;;;;;;;;;20.00;39.60;;;;;;5088097;28;19947;-62
2022/01/31 14:47:40;;;;;;;;;;;20.00;39.50;;;;;;5031376;28;20276;-64
2022/01/31 14:50:07;;;;;;;;;;;20.10;39.60;;;;;;5058711;28;20011;-64
2022/01/31 14:52:33;;;;;;;;;;;20.00;39.60;;;;;;5107987;28;19912;-63